Terminal Aerodrome Forecast
Issued by NWS

Home | Current Version | Previous Version | Text Only | Print | Product List | Glossary On
Versions: 1 2 3 4 5 6 7 8 9 10 11 12
000
FTAK31 PAFA 221802 RRA
TAFABT
TAF
PABT 221802Z 2218/2318 30005KT P6SM VCSH BKN050 OVC070
     FM222200 VRB04KT 6SM -SHRA BR OVC050
     FM231400 VRB03KT 5SM -SHRA BR BKN025=

USA.gov is the U.S. government's official web portal to all federal, state and local government web resources and services.